Time;durP1;ratioP1;P1;durP2;ratioP2;P2;SDS_P1;SDS_P2;PMS_P1;PMS_P2;Temp;Humidity;BMP_temperature;BMP_pressure;BME280_temperature;BME280_humidity;BME280_pressure;Samples;Min_cycle;Max_cycle;Signal;HPM_P1;HPM_P2
2024/04/03 00:00:31;;;;;;;;;;;12.80;99.90;;;;;;5052469;28;20320;-75
2024/04/03 00:02:57;;;;;;;;;;;12.70;99.90;;;;;;5053062;28;19931;-74
2024/04/03 00:05:23;;;;;;;;;;;12.60;99.90;;;;;;5052993;28;19908;-75
2024/04/03 00:07:51;;;;;;;;;;;12.70;99.90;;;;;;5053426;28;20269;-75
2024/04/03 00:10:18;;;;;;;;;;;12.70;99.90;;;;;;5052794;28;19908;-75
2024/04/03 00:12:44;;;;;;;;;;;12.60;99.90;;;;;;5053261;28;19905;-75
2024/04/03 00:15:10;;;;;;;;;;;12.70;99.90;;;;;;5052084;28;20359;-75
2024/04/03 00:17:36;;;;;;;;;;;12.70;99.90;;;;;;5053148;28;19908;-75
2024/04/03 00:20:02;;;;;;;;;;;12.80;99.90;;;;;;5053106;28;19924;-74
2024/04/03 00:22:28;;;;;;;;;;;12.80;99.90;;;;;;5052460;28;19939;-75
2024/04/03 00:24:54;;;;;;;;;;;12.80;99.90;;;;;;5051776;28;19905;-75
2024/04/03 00:27:20;;;;;;;;;;;12.80;99.90;;;;;;5032777;28;19909;-74
2024/04/03 00:29:46;;;;;;;;;;;12.80;99.90;;;;;;5032561;28;19905;-75
2024/04/03 00:32:12;;;;;;;;;;;12.80;99.90;;;;;;5049033;28;19913;-75
2024/04/03 00:34:38;;;;;;;;;;;12.80;99.90;;;;;;5049617;28;20431;-75
2024/04/03 00:37:04;;;;;;;;;;;12.80;99.90;;;;;;5047965;28;19904;-74
2024/04/03 00:39:30;;;;;;;;;;;12.80;99.90;;;;;;5052729;28;19923;-74
2024/04/03 00:41:56;;;;;;;;;;;12.70;99.90;;;;;;5052450;28;19911;-75
2024/04/03 00:44:22;;;;;;;;;;;12.80;99.90;;;;;;5052328;28;19916;-74
2024/04/03 00:46:48;;;;;;;;;;;12.80;99.90;;;;;;5051875;28;19916;-75
2024/04/03 00:49:14;;;;;;;;;;;12.80;99.90;;;;;;5052611;28;19908;-75
2024/04/03 00:51:39;;;;;;;;;;;12.70;99.90;;;;;;5051194;28;19912;-74
2024/04/03 00:54:05;;;;;;;;;;;12.70;99.90;;;;;;5051581;28;19915;-74
2024/04/03 00:56:31;;;;;;;;;;;12.70;99.90;;;;;;5052111;28;20384;-74
2024/04/03 00:58:57;;;;;;;;;;;12.60;99.90;;;;;;5052172;28;19940;-72
2024/04/03 01:01:23;;;;;;;;;;;12.70;99.90;;;;;;5049834;28;19909;-73
2024/04/03 01:03:49;;;;;;;;;;;12.70;99.90;;;;;;5051481;28;20273;-73
2024/04/03 01:06:15;;;;;;;;;;;12.70;99.90;;;;;;5052073;28;19905;-73
2024/04/03 01:08:41;;;;;;;;;;;12.70;99.90;;;;;;5052600;28;19909;-73
2024/04/03 01:11:07;;;;;;;;;;;12.70;99.90;;;;;;5052078;28;19904;-73
2024/04/03 01:13:32;;;;;;;;;;;12.80;99.90;;;;;;5052356;28;19908;-73
2024/04/03 01:16:01;;;;;;;;;;;12.80;99.90;;;;;;5051478;28;19909;-73
2024/04/03 01:18:27;;;;;;;;;;;12.80;99.90;;;;;;5051982;28;19908;-73
2024/04/03 01:20:53;;;;;;;;;;;12.70;99.90;;;;;;5052129;28;20254;-72
2024/04/03 01:23:19;;;;;;;;;;;12.80;99.90;;;;;;5052422;28;19963;-73
2024/04/03 01:25:45;;;;;;;;;;;12.80;99.90;;;;;;5044464;28;20301;-73
2024/04/03 01:28:11;;;;;;;;;;;12.90;99.90;;;;;;5032266;28;19905;-74
2024/04/03 01:30:37;;;;;;;;;;;12.90;99.90;;;;;;5034336;28;20375;-73
2024/04/03 01:33:04;;;;;;;;;;;12.90;99.90;;;;;;5052382;28;19904;-73
2024/04/03 01:35:31;;;;;;;;;;;12.90;99.90;;;;;;5044544;28;19908;-73
2024/04/03 01:37:57;;;;;;;;;;;12.80;99.90;;;;;;5056114;28;19904;-73
2024/04/03 01:40:23;;;;;;;;;;;12.80;99.90;;;;;;5055857;28;19919;-73
2024/04/03 01:42:49;;;;;;;;;;;12.80;99.90;;;;;;5054723;28;19905;-73
2024/04/03 01:45:15;;;;;;;;;;;12.80;99.90;;;;;;5055134;28;19909;-73
2024/04/03 01:47:41;;;;;;;;;;;12.90;99.90;;;;;;5056015;28;19908;-74
2024/04/03 01:50:07;;;;;;;;;;;12.80;99.90;;;;;;5056008;28;19913;-73
2024/04/03 01:52:33;;;;;;;;;;;12.80;99.90;;;;;;5055430;28;20381;-73
2024/04/03 01:54:59;;;;;;;;;;;12.90;99.90;;;;;;5055996;28;19905;-73
2024/04/03 01:57:25;;;;;;;;;;;12.80;99.90;;;;;;5055103;28;19909;-73
2024/04/03 01:59:51;;;;;;;;;;;12.90;99.90;;;;;;5055252;28;20276;-75
2024/04/03 02:02:17;;;;;;;;;;;12.90;99.90;;;;;;5053826;28;20040;-74
2024/04/03 02:04:43;;;;;;;;;;;12.80;99.90;;;;;;5033662;28;19927;-74
2024/04/03 02:07:08;;;;;;;;;;;12.80;99.90;;;;;;5029455;28;19909;-74
2024/04/03 02:09:35;;;;;;;;;;;12.70;99.90;;;;;;5032690;28;19905;-74
2024/04/03 02:12:02;;;;;;;;;;;12.70;99.90;;;;;;5048823;28;20280;-74
2024/04/03 02:14:29;;;;;;;;;;;12.80;99.90;;;;;;5050801;28;19908;-74
2024/04/03 02:16:55;;;;;;;;;;;12.80;99.90;;;;;;5032308;28;20273;-73
2024/04/03 02:19:21;;;;;;;;;;;12.90;99.90;;;;;;5033760;28;19960;-74
2024/04/03 02:21:47;;;;;;;;;;;12.80;99.90;;;;;;5033529;28;19923;-74
2024/04/03 02:24:13;;;;;;;;;;;12.80;99.90;;;;;;5033853;28;19916;-74
2024/04/03 02:26:39;;;;;;;;;;;12.80;99.90;;;;;;5033371;28;19905;-74
2024/04/03 02:29:05;;;;;;;;;;;12.80;99.90;;;;;;5033874;28;19916;-74
2024/04/03 02:31:30;;;;;;;;;;;12.80;99.90;;;;;;5044122;28;19912;-74
2024/04/03 02:33:56;;;;;;;;;;;12.80;99.90;;;;;;5037686;28;19913;-74
2024/04/03 02:36:22;;;;;;;;;;;12.80;99.90;;;;;;5040142;28;19912;-74
2024/04/03 02:38:48;;;;;;;;;;;12.90;99.90;;;;;;5035113;28;20278;-74
2024/04/03 02:41:14;;;;;;;;;;;13.00;99.90;;;;;;5043139;28;19912;-74
2024/04/03 02:43:40;;;;;;;;;;;13.00;99.90;;;;;;5054805;28;19909;-74
2024/04/03 02:46:07;;;;;;;;;;;13.00;99.90;;;;;;5054025;28;19909;-74
2024/04/03 02:48:32;;;;;;;;;;;13.00;99.90;;;;;;5052924;28;20342;-74
2024/04/03 02:51:03;;;;;;;;;;;12.90;99.90;;;;;;5038865;28;19971;-74
2024/04/03 02:53:29;;;;;;;;;;;12.90;99.90;;;;;;5035716;28;19909;-74
2024/04/03 02:55:58;;;;;;;;;;;12.80;99.90;;;;;;5040173;28;19908;-74
2024/04/03 02:58:24;;;;;;;;;;;12.80;99.90;;;;;;5054682;28;19909;-74
2024/04/03 03:00:59;;;;;;;;;;;12.70;99.90;;;;;;5053558;28;19921;-74
2024/04/03 03:03:26;;;;;;;;;;;12.70;99.90;;;;;;5054719;28;19909;-74
2024/04/03 03:05:53;;;;;;;;;;;12.70;99.90;;;;;;5054102;28;19911;-74
2024/04/03 03:08:20;;;;;;;;;;;12.70;99.90;;;;;;5054492;28;19916;-74
2024/04/03 03:10:46;;;;;;;;;;;12.70;99.90;;;;;;5053534;28;19905;-74
2024/04/03 03:13:11;;;;;;;;;;;12.70;99.90;;;;;;5053013;28;19916;-74
2024/04/03 03:15:37;;;;;;;;;;;12.60;99.90;;;;;;5053426;28;19913;-74
2024/04/03 03:18:03;;;;;;;;;;;12.60;99.90;;;;;;5054336;28;19909;-74
2024/04/03 03:20:29;;;;;;;;;;;12.60;99.90;;;;;;5053688;28;19912;-74
2024/04/03 03:22:55;;;;;;;;;;;12.60;99.90;;;;;;5053997;28;20323;-73
2024/04/03 03:25:21;;;;;;;;;;;12.60;99.90;;;;;;5035836;28;19916;-74
2024/04/03 03:27:47;;;;;;;;;;;12.60;99.90;;;;;;5034130;28;20070;-75
2024/04/03 03:30:13;;;;;;;;;;;12.70;99.90;;;;;;5033938;28;19921;-73
2024/04/03 03:32:39;;;;;;;;;;;12.60;99.90;;;;;;5054020;28;20323;-73
2024/04/03 03:35:05;;;;;;;;;;;12.70;99.90;;;;;;5046982;28;19924;-73
2024/04/03 03:37:31;;;;;;;;;;;12.70;99.90;;;;;;5053193;28;19912;-73
2024/04/03 03:40:00;;;;;;;;;;;12.70;99.90;;;;;;5053579;28;19920;-73
2024/04/03 03:42:26;;;;;;;;;;;12.70;99.90;;;;;;5052761;28;19909;-73
2024/04/03 03:44:52;;;;;;;;;;;12.70;99.90;;;;;;5053553;28;20412;-73
2024/04/03 03:47:18;;;;;;;;;;;12.70;99.90;;;;;;5052884;28;19964;-73
2024/04/03 03:52:40;;;;;;;;;;;12.70;99.90;;;;;;5053619;28;20380;-73
2024/04/03 03:55:06;;;;;;;;;;;12.80;99.90;;;;;;5052988;28;19912;-73
2024/04/03 03:57:32;;;;;;;;;;;12.80;99.90;;;;;;5053279;28;19908;-73
2024/04/03 03:59:58;;;;;;;;;;;12.80;99.90;;;;;;5052618;28;19962;-73
2024/04/03 04:02:24;;;;;;;;;;;12.90;99.90;;;;;;5052160;28;19912;-73
2024/04/03 04:04:53;;;;;;;;;;;12.90;99.90;;;;;;5052981;28;20371;-73
2024/04/03 04:07:19;;;;;;;;;;;12.90;99.90;;;;;;5052548;28;19916;-73
2024/04/03 04:09:48;;;;;;;;;;;12.80;99.90;;;;;;5053622;28;19905;-73
2024/04/03 04:12:14;;;;;;;;;;;12.80;99.90;;;;;;5052456;28;19915;-73
2024/04/03 04:14:41;;;;;;;;;;;12.90;99.90;;;;;;5053380;28;20300;-73
2024/04/03 04:17:07;;;;;;;;;;;12.90;99.90;;;;;;5051471;28;19913;-72
2024/04/03 04:19:33;;;;;;;;;;;12.90;99.90;;;;;;5053311;28;20246;-72
2024/04/03 04:21:58;;;;;;;;;;;12.90;99.90;;;;;;5052047;28;20285;-73
2024/04/03 04:24:25;;;;;;;;;;;12.90;99.90;;;;;;5043484;28;19912;-73
2024/04/03 04:26:58;;;;;;;;;;;12.90;99.90;;;;;;5032951;28;19909;-73
2024/04/03 04:29:24;;;;;;;;;;;12.90;99.90;;;;;;5033627;28;19905;-72
2024/04/03 04:31:50;;;;;;;;;;;12.90;99.90;;;;;;5046074;28;19968;-74
2024/04/03 04:34:16;;;;;;;;;;;12.90;99.90;;;;;;5052665;28;19951;-74
2024/04/03 04:36:42;;;;;;;;;;;12.90;99.90;;;;;;5052179;28;19908;-74
2024/04/03 04:39:08;;;;;;;;;;;13.00;99.90;;;;;;5052738;28;19987;-75
2024/04/03 04:41:34;;;;;;;;;;;13.00;99.90;;;;;;5052445;28;19921;-75
2024/04/03 04:44:00;;;;;;;;;;;13.00;99.90;;;;;;5052721;28;19905;-74
2024/04/03 04:46:27;;;;;;;;;;;12.90;99.90;;;;;;5051918;28;19912;-75
2024/04/03 04:48:53;;;;;;;;;;;13.00;99.90;;;;;;5052676;28;19911;-74
2024/04/03 04:51:20;;;;;;;;;;;13.00;99.90;;;;;;5051796;28;19908;-74
2024/04/03 04:53:45;;;;;;;;;;;12.90;99.90;;;;;;5052732;28;19905;-75
2024/04/03 04:56:11;;;;;;;;;;;12.90;99.90;;;;;;5052130;28;20301;-74
2024/04/03 04:58:37;;;;;;;;;;;12.90;99.90;;;;;;5052613;28;19912;-74
2024/04/03 05:01:04;;;;;;;;;;;13.00;99.90;;;;;;5051582;28;19928;-74
2024/04/03 05:03:30;;;;;;;;;;;12.90;99.90;;;;;;5052652;28;19912;-74
2024/04/03 05:05:56;;;;;;;;;;;13.00;99.90;;;;;;5051779;28;20391;-75
2024/04/03 05:08:22;;;;;;;;;;;12.90;99.90;;;;;;5052588;28;19905;-74
2024/04/03 05:10:51;;;;;;;;;;;12.90;99.90;;;;;;5051993;28;19919;-75
2024/04/03 05:13:17;;;;;;;;;;;12.90;99.90;;;;;;5056713;28;19904;-75
2024/04/03 05:15:45;;;;;;;;;;;12.90;99.90;;;;;;5055584;28;19913;-74
2024/04/03 05:18:11;;;;;;;;;;;12.90;99.90;;;;;;5056924;28;19905;-75
2024/04/03 05:20:37;;;;;;;;;;;12.90;99.90;;;;;;5056084;28;19927;-74
2024/04/03 05:23:03;;;;;;;;;;;13.00;99.90;;;;;;5056438;28;19917;-74
2024/04/03 05:25:29;;;;;;;;;;;12.90;99.90;;;;;;5037225;28;19908;-75
2024/04/03 05:27:55;;;;;;;;;;;12.90;99.90;;;;;;5036366;28;20012;-75
2024/04/03 05:30:21;;;;;;;;;;;12.90;99.90;;;;;;5036880;28;19912;-74
2024/04/03 05:32:47;;;;;;;;;;;13.00;99.90;;;;;;5056258;28;19958;-75
2024/04/03 05:35:16;;;;;;;;;;;13.00;99.90;;;;;;5055246;28;19916;-75
2024/04/03 05:37:45;;;;;;;;;;;12.90;99.90;;;;;;5055148;28;19916;-74
2024/04/03 05:40:11;;;;;;;;;;;12.90;99.90;;;;;;5054627;28;19939;-75
2024/04/03 05:42:37;;;;;;;;;;;12.90;99.90;;;;;;5056085;28;20377;-74
2024/04/03 05:45:03;;;;;;;;;;;12.90;99.90;;;;;;5054537;28;19905;-75
2024/04/03 05:47:30;;;;;;;;;;;13.00;99.90;;;;;;5055477;28;20350;-75
2024/04/03 05:49:56;;;;;;;;;;;13.00;99.90;;;;;;5055744;28;19923;-75
2024/04/03 05:52:22;;;;;;;;;;;13.00;99.90;;;;;;5055323;28;19912;-74
2024/04/03 05:54:49;;;;;;;;;;;12.90;99.90;;;;;;5056363;28;20277;-75
2024/04/03 05:57:18;;;;;;;;;;;13.00;99.90;;;;;;5055305;28;19909;-75
2024/04/03 05:59:44;;;;;;;;;;;13.00;99.90;;;;;;5055496;28;20345;-74
2024/04/03 06:02:10;;;;;;;;;;;13.00;99.90;;;;;;5054747;28;19916;-74
2024/04/03 06:04:36;;;;;;;;;;;13.00;99.90;;;;;;5055472;28;19919;-75
2024/04/03 06:07:03;;;;;;;;;;;13.00;99.90;;;;;;5055105;28;19904;-75
2024/04/03 06:09:30;;;;;;;;;;;13.00;99.90;;;;;;5055130;28;19908;-75
2024/04/03 06:11:56;;;;;;;;;;;13.10;99.90;;;;;;5055169;28;19916;-75
2024/04/03 06:14:22;;;;;;;;;;;13.00;99.90;;;;;;5054066;28;19915;-74
2024/04/03 06:16:48;;;;;;;;;;;13.00;99.90;;;;;;5054712;28;19909;-75
2024/04/03 06:19:15;;;;;;;;;;;13.00;99.90;;;;;;5055117;28;20276;-75
2024/04/03 06:21:41;;;;;;;;;;;13.10;99.90;;;;;;5053783;28;20443;-74
2024/04/03 06:24:07;;;;;;;;;;;13.10;99.90;;;;;;5047332;28;19907;-75
2024/04/03 06:26:33;;;;;;;;;;;13.10;99.90;;;;;;5034988;28;20535;-75
2024/04/03 06:29:02;;;;;;;;;;;13.10;99.90;;;;;;5035180;28;19936;-75
2024/04/03 06:31:28;;;;;;;;;;;13.10;99.90;;;;;;5045278;28;19917;-75
2024/04/03 06:33:56;;;;;;;;;;;13.10;99.90;;;;;;5054521;28;19908;-75
2024/04/03 06:36:23;;;;;;;;;;;13.20;99.90;;;;;;5054522;28;19908;-75
2024/04/03 06:38:48;;;;;;;;;;;13.10;99.90;;;;;;5053352;28;19908;-75
2024/04/03 06:41:14;;;;;;;;;;;13.20;99.90;;;;;;5054355;28;19917;-75
2024/04/03 06:43:41;;;;;;;;;;;13.30;99.90;;;;;;5054974;28;19912;-75
2024/04/03 06:46:07;;;;;;;;;;;13.30;99.90;;;;;;5053947;28;19917;-75
2024/04/03 06:48:32;;;;;;;;;;;13.40;99.90;;;;;;5054560;28;19909;-75
2024/04/03 06:50:58;;;;;;;;;;;13.40;99.90;;;;;;5054186;28;20279;-75
2024/04/03 06:53:24;;;;;;;;;;;13.40;99.90;;;;;;5055001;28;19912;-75
2024/04/03 06:55:56;;;;;;;;;;;13.40;99.90;;;;;;5054129;28;19915;-75
2024/04/03 06:58:22;;;;;;;;;;;13.40;99.90;;;;;;5053457;28;19905;-75
2024/04/03 07:00:49;;;;;;;;;;;13.50;99.90;;;;;;5053900;28;20007;-75
2024/04/03 07:03:16;;;;;;;;;;;13.40;99.90;;;;;;5054382;28;19919;-75
2024/04/03 07:05:44;;;;;;;;;;;13.50;99.90;;;;;;5054088;28;19909;-75
2024/04/03 07:08:10;;;;;;;;;;;13.50;99.90;;;;;;5053900;28;19905;-75
2024/04/03 07:10:36;;;;;;;;;;;13.50;99.90;;;;;;5053893;28;19919;-75
2024/04/03 07:13:03;;;;;;;;;;;13.50;99.90;;;;;;5054607;28;19904;-75
2024/04/03 07:15:29;;;;;;;;;;;13.50;99.90;;;;;;5053278;28;19909;-76
2024/04/03 07:17:55;;;;;;;;;;;13.50;99.90;;;;;;5053929;28;20371;-75
2024/04/03 07:20:25;;;;;;;;;;;13.50;99.90;;;;;;5053028;28;19912;-75
2024/04/03 07:22:54;;;;;;;;;;;13.50;99.90;;;;;;5053482;28;20402;-75
2024/04/03 07:25:19;;;;;;;;;;;13.50;99.90;;;;;;5035352;28;19906;-75
2024/04/03 07:27:46;;;;;;;;;;;13.60;99.90;;;;;;5034121;28;19905;-75
2024/04/03 07:30:11;;;;;;;;;;;13.60;99.90;;;;;;5033431;28;19909;-75
2024/04/03 07:32:37;;;;;;;;;;;13.50;99.90;;;;;;5054144;28;19909;-75
2024/04/03 07:35:04;;;;;;;;;;;13.60;99.90;;;;;;5047083;28;19951;-76
2024/04/03 07:37:30;;;;;;;;;;;13.60;99.90;;;;;;5052912;28;19909;-75
2024/04/03 07:39:55;;;;;;;;;;;13.60;99.90;;;;;;5053878;28;19915;-76
2024/04/03 07:42:21;;;;;;;;;;;13.60;99.90;;;;;;5053232;28;19916;-75
2024/04/03 07:44:49;;;;;;;;;;;13.70;99.90;;;;;;5053470;28;19912;-76
2024/04/03 07:47:15;;;;;;;;;;;13.70;99.90;;;;;;5052703;28;20365;-75
2024/04/03 07:49:41;;;;;;;;;;;13.60;99.90;;;;;;5052512;28;19912;-75
2024/04/03 07:52:07;;;;;;;;;;;13.70;99.90;;;;;;5053129;28;19908;-75
2024/04/03 07:54:32;;;;;;;;;;;13.70;99.90;;;;;;5053575;28;19904;-75
2024/04/03 07:56:58;;;;;;;;;;;13.70;99.90;;;;;;5053030;28;19912;-75
2024/04/03 07:59:24;;;;;;;;;;;13.80;99.90;;;;;;5053379;28;19905;-75
2024/04/03 08:01:50;;;;;;;;;;;13.80;99.90;;;;;;5052414;28;19932;-75
2024/04/03 08:04:16;;;;;;;;;;;13.80;99.90;;;;;;5053465;28;20361;-74
2024/04/03 08:06:42;;;;;;;;;;;13.80;99.90;;;;;;5053060;28;19920;-73
2024/04/03 08:09:08;;;;;;;;;;;13.90;99.90;;;;;;5053442;28;19919;-73
2024/04/03 08:11:35;;;;;;;;;;;14.00;99.90;;;;;;5052632;28;20388;-72
2024/04/03 08:14:01;;;;;;;;;;;14.00;99.90;;;;;;5052885;28;19905;-73
2024/04/03 08:16:27;;;;;;;;;;;14.00;99.90;;;;;;5051643;28;20302;-73
2024/04/03 08:18:53;;;;;;;;;;;14.00;99.90;;;;;;5053307;28;20334;-72
2024/04/03 08:21:19;;;;;;;;;;;14.00;99.90;;;;;;5052595;28;19920;-72
2024/04/03 08:23:45;;;;;;;;;;;14.10;99.90;;;;;;5048934;28;19905;-73
2024/04/03 08:26:11;;;;;;;;;;;14.20;99.90;;;;;;5032930;28;20309;-72
2024/04/03 08:28:38;;;;;;;;;;;14.40;99.90;;;;;;5032881;28;19909;-72
2024/04/03 08:31:11;;;;;;;;;;;14.50;99.90;;;;;;5040292;28;19920;-73
2024/04/03 08:33:37;;;;;;;;;;;14.60;99.90;;;;;;5053081;28;19912;-73
2024/04/03 08:36:03;;;;;;;;;;;14.70;99.90;;;;;;5052490;28;19975;-73
2024/04/03 08:38:29;;;;;;;;;;;14.60;99.90;;;;;;5052639;28;19908;-73
2024/04/03 08:40:55;;;;;;;;;;;14.60;99.90;;;;;;5052497;28;20416;-73
2024/04/03 08:43:24;;;;;;;;;;;14.60;99.90;;;;;;5052567;28;19905;-73
2024/04/03 08:45:52;;;;;;;;;;;14.70;99.90;;;;;;5050876;28;19919;-73
2024/04/03 08:48:22;;;;;;;;;;;14.80;99.90;;;;;;5052572;28;19912;-72
2024/04/03 08:50:48;;;;;;;;;;;15.00;99.90;;;;;;5051778;28;19932;-73
2024/04/03 08:53:16;;;;;;;;;;;15.30;99.90;;;;;;5052297;28;19904;-72
2024/04/03 08:55:43;;;;;;;;;;;15.50;99.90;;;;;;5052276;28;19916;-73
2024/04/03 08:58:09;;;;;;;;;;;15.60;99.90;;;;;;5051410;28;19909;-73
2024/04/03 09:00:35;;;;;;;;;;;15.60;99.90;;;;;;5047270;28;19921;-73
2024/04/03 09:03:01;;;;;;;;;;;15.60;99.90;;;;;;5032798;28;19912;-73
2024/04/03 09:05:27;;;;;;;;;;;15.40;99.90;;;;;;5035512;28;19909;-73
2024/04/03 09:08:11;;;;;;;;;;;15.30;99.90;;;;;;5050817;28;19924;-76
2024/04/03 09:10:47;;;;;;;;;;;15.20;99.90;;;;;;5052106;28;19916;-76
2024/04/03 09:13:13;;;;;;;;;;;15.20;99.90;;;;;;5051105;28;20326;-76
2024/04/03 09:15:39;;;;;;;;;;;15.20;99.90;;;;;;5050167;28;19916;-75
2024/04/03 09:18:06;;;;;;;;;;;15.30;99.90;;;;;;5052558;28;19905;-76
2024/04/03 09:20:33;;;;;;;;;;;15.20;99.90;;;;;;5050840;28;19947;-75
2024/04/03 09:22:59;;;;;;;;;;;15.20;99.90;;;;;;5052422;28;19921;-75
2024/04/03 09:25:28;;;;;;;;;;;15.10;99.90;;;;;;5034045;28;19959;-77
2024/04/03 09:28:01;;;;;;;;;;;15.00;99.90;;;;;;5032136;28;19905;-76
2024/04/03 09:30:27;;;;;;;;;;;14.90;99.90;;;;;;5033718;28;19909;-76
2024/04/03 09:32:59;;;;;;;;;;;14.80;99.90;;;;;;5052310;28;19908;-76
2024/04/03 09:35:29;;;;;;;;;;;14.80;99.90;;;;;;5051929;28;19911;-76
2024/04/03 09:37:55;;;;;;;;;;;14.80;99.90;;;;;;5052273;28;19905;-75
2024/04/03 09:40:22;;;;;;;;;;;15.00;99.90;;;;;;5051673;28;19912;-75
2024/04/03 09:42:48;;;;;;;;;;;15.10;99.90;;;;;;5050852;28;19905;-76
2024/04/03 09:45:14;;;;;;;;;;;15.30;99.90;;;;;;5050272;28;19912;-76
2024/04/03 09:47:40;;;;;;;;;;;15.40;99.90;;;;;;5052113;28;19966;-75
2024/04/03 09:50:06;;;;;;;;;;;15.60;99.90;;;;;;5050985;28;19904;-76
2024/04/03 09:52:32;;;;;;;;;;;15.70;99.90;;;;;;5050398;28;20293;-76
2024/04/03 09:54:58;;;;;;;;;;;15.70;99.90;;;;;;5052237;28;19908;-75
2024/04/03 09:57:24;;;;;;;;;;;15.60;99.90;;;;;;5050351;28;19909;-76
2024/04/03 09:59:50;;;;;;;;;;;15.60;99.90;;;;;;5055874;28;19908;-76
2024/04/03 10:02:16;;;;;;;;;;;15.60;99.90;;;;;;5054619;28;19921;-75
2024/04/03 10:04:42;;;;;;;;;;;15.60;99.90;;;;;;5055794;28;19923;-76
2024/04/03 10:07:15;;;;;;;;;;;15.60;99.90;;;;;;5055159;28;19909;-77
2024/04/03 10:09:41;;;;;;;;;;;15.70;99.90;;;;;;5054763;28;19920;-76
2024/04/03 10:12:07;;;;;;;;;;;15.70;99.90;;;;;;5055024;28;19920;-76
2024/04/03 10:14:35;;;;;;;;;;;15.70;99.90;;;;;;5054260;28;19905;-76
2024/04/03 10:17:01;;;;;;;;;;;15.60;99.90;;;;;;5054015;28;19921;-72
2024/04/03 10:19:30;;;;;;;;;;;15.50;99.90;;;;;;5055648;28;19905;-73
2024/04/03 10:21:56;;;;;;;;;;;15.40;99.90;;;;;;5054781;28;19920;-73
2024/04/03 10:24:22;;;;;;;;;;;15.30;99.90;;;;;;5045060;28;19905;-73
2024/04/03 10:26:49;;;;;;;;;;;15.30;99.90;;;;;;5035184;28;19913;-73
2024/04/03 10:29:15;;;;;;;;;;;15.30;99.90;;;;;;5035431;28;19912;-73
2024/04/03 10:31:42;;;;;;;;;;;15.20;99.90;;;;;;5047145;28;19912;-72
2024/04/03 10:34:08;;;;;;;;;;;15.10;99.90;;;;;;5054207;28;20365;-73
2024/04/03 10:36:34;;;;;;;;;;;15.00;99.90;;;;;;5054012;28;19908;-73
2024/04/03 10:39:01;;;;;;;;;;;15.00;99.90;;;;;;5054741;28;19982;-72
2024/04/03 10:41:27;;;;;;;;;;;15.10;99.90;;;;;;5053536;28;20376;-73
2024/04/03 10:43:53;;;;;;;;;;;15.20;99.90;;;;;;5055075;28;19905;-73
2024/04/03 10:46:22;;;;;;;;;;;15.50;99.90;;;;;;5054392;28;19916;-73
2024/04/03 10:48:48;;;;;;;;;;;15.80;99.90;;;;;;5054991;28;20345;-73
2024/04/03 10:51:14;;;;;;;;;;;16.10;99.90;;;;;;5054018;28;19916;-73
2024/04/03 10:53:40;;;;;;;;;;;16.30;99.90;;;;;;5054521;28;19905;-73
2024/04/03 10:56:06;;;;;;;;;;;16.30;99.90;;;;;;5054420;28;20385;-73
2024/04/03 10:58:32;;;;;;;;;;;16.30;99.90;;;;;;5054796;28;19904;-73
2024/04/03 11:00:58;;;;;;;;;;;16.10;99.90;;;;;;5053710;28;19928;-72
2024/04/03 11:03:24;;;;;;;;;;;15.90;99.90;;;;;;5053907;28;20387;-73
2024/04/03 11:05:50;;;;;;;;;;;15.80;99.90;;;;;;5052981;28;19913;-73
2024/04/03 11:08:16;;;;;;;;;;;15.80;99.90;;;;;;5053251;28;20275;-73
2024/04/03 11:10:42;;;;;;;;;;;16.00;99.90;;;;;;5053647;28;19932;-73
2024/04/03 11:13:11;;;;;;;;;;;16.20;99.90;;;;;;5053893;28;19905;-73
2024/04/03 11:15:37;;;;;;;;;;;16.50;99.90;;;;;;5053544;28;19912;-72
2024/04/03 11:18:03;;;;;;;;;;;16.60;99.90;;;;;;5054289;28;19920;-75
2024/04/03 11:20:30;;;;;;;;;;;16.70;99.90;;;;;;5035158;28;19916;-76
2024/04/03 11:22:58;;;;;;;;;;;16.70;99.90;;;;;;5053846;28;19917;-75
2024/04/03 11:25:24;;;;;;;;;;;16.70;99.90;;;;;;5035960;28;19905;-76
2024/04/03 11:27:50;;;;;;;;;;;16.80;99.90;;;;;;5034298;28;19905;-76
2024/04/03 11:30:16;;;;;;;;;;;16.90;99.90;;;;;;5034121;28;19909;-74
2024/04/03 11:32:42;;;;;;;;;;;17.10;99.90;;;;;;5054103;28;19909;-76
2024/04/03 11:35:08;;;;;;;;;;;17.20;99.90;;;;;;5053776;28;19915;-77
2024/04/03 11:37:35;;;;;;;;;;;17.30;99.90;;;;;;5053193;28;19904;-76
2024/04/03 11:40:04;;;;;;;;;;;17.40;99.90;;;;;;5053515;28;19916;-76
2024/04/03 11:42:31;;;;;;;;;;;17.40;99.90;;;;;;5053325;28;20329;-76
2024/04/03 11:44:56;;;;;;;;;;;17.40;99.90;;;;;;5053942;28;19916;-77
2024/04/03 11:47:22;;;;;;;;;;;17.20;99.90;;;;;;5052849;28;19909;-76
2024/04/03 11:49:49;;;;;;;;;;;17.40;99.90;;;;;;5053470;28;19909;-76
2024/04/03 11:52:15;;;;;;;;;;;17.40;99.90;;;;;;5052758;28;19906;-77
2024/04/03 11:54:41;;;;;;;;;;;17.30;99.90;;;;;;5052950;28;19908;-77
2024/04/03 11:57:08;;;;;;;;;;;17.10;99.90;;;;;;5053089;28;19904;-78
2024/04/03 11:59:34;;;;;;;;;;;16.90;99.90;;;;;;5053714;28;19919;-77
2024/04/03 12:02:01;;;;;;;;;;;16.90;99.90;;;;;;5052410;28;19928;-77
2024/04/03 12:04:27;;;;;;;;;;;16.80;99.90;;;;;;5052288;28;19915;-76
2024/04/03 12:06:53;;;;;;;;;;;16.70;99.90;;;;;;5052636;28;19905;-77
2024/04/03 12:09:19;;;;;;;;;;;16.70;99.90;;;;;;5053435;28;19908;-77
2024/04/03 12:11:44;;;;;;;;;;;16.60;99.90;;;;;;5052823;28;19913;-77
2024/04/03 12:14:10;;;;;;;;;;;16.40;99.90;;;;;;5052153;28;19908;-76
2024/04/03 12:16:36;;;;;;;;;;;16.40;99.90;;;;;;5052298;28;19920;-78
2024/04/03 12:21:47;;;;;;;;;;;16.40;99.90;;;;;;5052271;28;19924;-77
2024/04/03 12:24:14;;;;;;;;;;;16.40;99.90;;;;;;5044765;28;19905;-77
2024/04/03 12:26:41;;;;;;;;;;;16.40;99.90;;;;;;5032615;28;20289;-73
2024/04/03 12:29:07;;;;;;;;;;;16.60;99.90;;;;;;5033389;28;19909;-72
2024/04/03 12:31:33;;;;;;;;;;;16.80;99.90;;;;;;5059267;28;19923;-72
2024/04/03 12:33:59;;;;;;;;;;;17.10;99.90;;;;;;5051595;28;20277;-73
2024/04/03 12:36:25;;;;;;;;;;;17.20;99.90;;;;;;5044448;28;20285;-73
2024/04/03 12:38:53;;;;;;;;;;;17.20;99.90;;;;;;5053038;28;20007;-72
2024/04/03 12:41:21;;;;;;;;;;;17.20;99.90;;;;;;5051873;28;20270;-73
2024/04/03 12:43:47;;;;;;;;;;;17.10;99.90;;;;;;5052401;28;19912;-72
2024/04/03 12:46:13;;;;;;;;;;;17.10;99.90;;;;;;5052148;28;20292;-73
2024/04/03 12:48:40;;;;;;;;;;;17.10;99.90;;;;;;5052496;28;20358;-73
2024/04/03 12:51:06;;;;;;;;;;;17.10;99.90;;;;;;5052054;28;19916;-73
2024/04/03 12:53:32;;;;;;;;;;;17.00;99.90;;;;;;5052182;28;19905;-73
2024/04/03 12:55:57;;;;;;;;;;;17.00;99.90;;;;;;5051660;28;20035;-73
2024/04/03 12:58:23;;;;;;;;;;;17.10;99.90;;;;;;5052749;28;19904;-73
2024/04/03 13:00:49;;;;;;;;;;;17.20;99.90;;;;;;5051782;28;19912;-72
2024/04/03 13:03:15;;;;;;;;;;;17.30;99.90;;;;;;5052782;28;19908;-73
2024/04/03 13:05:46;;;;;;;;;;;17.30;99.90;;;;;;5051730;28;19919;-73
2024/04/03 13:08:12;;;;;;;;;;;17.20;99.90;;;;;;5052702;28;19904;-72
2024/04/03 13:10:38;;;;;;;;;;;17.00;99.90;;;;;;5052301;28;19916;-72
2024/04/03 13:13:04;;;;;;;;;;;17.00;99.90;;;;;;5052406;28;19960;-73
2024/04/03 13:15:30;;;;;;;;;;;17.10;99.90;;;;;;5051755;28;19909;-73
2024/04/03 13:17:56;;;;;;;;;;;17.30;99.90;;;;;;5052556;28;19905;-73
2024/04/03 13:20:22;;;;;;;;;;;17.40;99.90;;;;;;5051810;28;19904;-73
2024/04/03 13:22:56;;;;;;;;;;;17.40;99.90;;;;;;5052352;28;19916;-73
2024/04/03 13:25:23;;;;;;;;;;;17.40;99.90;;;;;;5034304;28;19912;-73
2024/04/03 13:27:49;;;;;;;;;;;17.30;99.90;;;;;;5032695;28;19905;-73
2024/04/03 13:30:16;;;;;;;;;;;17.30;99.90;;;;;;5032262;28;20323;-73
2024/04/03 13:32:42;;;;;;;;;;;17.30;99.90;;;;;;5054524;28;19901;-74
2024/04/03 13:35:08;;;;;;;;;;;17.30;99.90;;;;;;5049207;28;19917;-76
2024/04/03 13:37:37;;;;;;;;;;;17.50;99.90;;;;;;5036141;28;20393;-77
2024/04/03 13:40:03;;;;;;;;;;;17.60;99.90;;;;;;5036361;28;20296;-77
2024/04/03 13:42:29;;;;;;;;;;;17.70;99.90;;;;;;5054957;28;19939;-77
2024/04/03 13:44:55;;;;;;;;;;;17.70;99.90;;;;;;5054962;28;19912;-77
2024/04/03 13:47:21;;;;;;;;;;;17.60;99.90;;;;;;5054811;28;20284;-76
2024/04/03 13:49:47;;;;;;;;;;;17.50;99.90;;;;;;5056182;28;19905;-76
2024/04/03 13:52:14;;;;;;;;;;;17.50;99.90;;;;;;5054398;28;20322;-76
2024/04/03 13:54:41;;;;;;;;;;;17.60;99.90;;;;;;5055898;28;19908;-77
2024/04/03 13:57:07;;;;;;;;;;;17.60;99.90;;;;;;5055373;28;19908;-76
2024/04/03 13:59:33;;;;;;;;;;;17.60;99.90;;;;;;5056030;28;19909;-77
2024/04/03 14:01:58;;;;;;;;;;;17.70;99.90;;;;;;5054184;28;20361;-76
2024/04/03 14:04:24;;;;;;;;;;;17.80;99.90;;;;;;5055764;28;19904;-76
2024/04/03 14:06:50;;;;;;;;;;;17.80;99.90;;;;;;5055195;28;19912;-77
2024/04/03 14:09:17;;;;;;;;;;;17.80;99.90;;;;;;5055879;28;20281;-77
2024/04/03 14:11:43;;;;;;;;;;;17.80;99.90;;;;;;5054777;28;20345;-76
2024/04/03 14:14:08;;;;;;;;;;;17.80;99.90;;;;;;5055588;28;19905;-76
2024/04/03 14:16:34;;;;;;;;;;;17.80;99.90;;;;;;5054116;28;19912;-76